»·PEaware :: USC243 KCOD-KSLC

USC243 :: KCOD-KSLC

FLIGHT INFORMATION

Flight Status: Arrived
Operator: Unknown
More flights by this operator :: More flights under this callsign
Pilot: Andy P. (22680)
Aircraft: GATES LEARJET LEARJET 35/36
(LJ35)
More flights by this aircraft type
Origin: KCOD Yellowstone Regl
United States
Destination: KSLC Salt Lake City Intl
United States
More flights between these airports :: More routes between these airports
Route: +COD JAC NORDK6
File this flight plan on PilotEdge
Remarks:
Altitude:
(Current/Filed)
34,000ft
Speed:
(Current/Filed)
465kts
Departed: 27-Feb-19 01:52 PM
Arrived: 27-Feb-19 02:44 PM
Distance/Time
Traveled:
259nm/0:52
Distance/Time
To Go:
Arrived

Flight Plot

Page will automatically refresh every two minutes.

Flight plan parsing failed; only flown route is shown


Map Options




Map Legend


Flown Route
Filed Route
Departure Airport
Arrival Airport
Navaid (VOR, NDB)
Fix

Horizontal Profiles

Position Reports

Time Latitude Longitude Heading Altitude Ground
Speed
27-Feb-19 13:36 44.513411 -109.028137 188 5088ft 0kts
27-Feb-19 13:37 44.513411 -109.028137 188 5088ft 0kts
27-Feb-19 13:38 44.513411 -109.028137 188 5088ft 0kts
27-Feb-19 13:39 44.513411 -109.028137 188 5088ft 0kts
27-Feb-19 13:40 44.513411 -109.028137 188 5088ft 0kts
27-Feb-19 13:41 44.513411 -109.028137 188 5088ft 0kts
27-Feb-19 13:42 44.513411 -109.028137 188 5088ft 0kts
27-Feb-19 13:43 44.513411 -109.028137 188 5088ft 0kts
27-Feb-19 13:45 44.513411 -109.028137 188 5088ft 0kts
27-Feb-19 13:46 44.513411 -109.028137 188 5088ft 0kts
27-Feb-19 13:47 44.513411 -109.028137 188 5088ft 0kts
27-Feb-19 13:48 44.513411 -109.028137 188 5088ft 0kts
27-Feb-19 13:49 44.514502 -109.031647 235 5088ft 9kts
27-Feb-19 13:50 44.512621 -109.035222 270 5088ft 6kts
27-Feb-19 13:51 44.513593 -109.035817 56 5088ft 10kts
27-Feb-19 13:52 44.534604 -108.996489 54 6223ft 197kts
27-Feb-19 13:53 44.587808 -108.968944 357 10554ft 229kts
27-Feb-19 13:54 44.611241 -109.018604 215 14539ft 234kts
27-Feb-19 13:55 44.558088 -109.071933 234 18636ft 223kts
27-Feb-19 13:56 44.518084 -109.150504 237 20896ft 287kts
27-Feb-19 13:57 44.463013 -109.250580 234 22511ft 361kts
27-Feb-19 13:58 44.394791 -109.370708 234 23632ft 413kts
27-Feb-19 13:59 44.324181 -109.499882 234 26092ft 421kts
27-Feb-19 14:00 44.251745 -109.629536 234 27977ft 425kts
27-Feb-19 14:01 44.180722 -109.755840 233 30650ft 401kts
27-Feb-19 14:02 44.113212 -109.875344 233 32897ft 388kts
27-Feb-19 14:03 44.046145 -109.993605 233 33977ft 396kts
27-Feb-19 14:03 43.989663 -110.092768 233 34008ft 390kts
27-Feb-19 14:05 43.911211 -110.229974 233 34007ft 387kts
27-Feb-19 14:06 43.844398 -110.346321 233 34003ft 385kts
27-Feb-19 14:06 43.791203 -110.438596 233 34348ft 376kts
27-Feb-19 14:07 43.724704 -110.553602 233 34102ft 389kts
27-Feb-19 14:09 43.646542 -110.688148 233 34490ft 390kts
27-Feb-19 14:09 43.582742 -110.779704 224 34416ft 397kts
27-Feb-19 14:10 43.502310 -110.879237 225 35008ft 391kts
27-Feb-19 14:11 43.419591 -110.981413 224 34087ft 392kts
27-Feb-19 14:12 43.338752 -111.080918 224 34017ft 390kts
27-Feb-19 14:13 43.257206 -111.180925 224 34018ft 394kts
27-Feb-19 14:14 43.175107 -111.281224 224 34021ft 397kts
27-Feb-19 14:15 43.092624 -111.381610 223 34036ft 395kts
27-Feb-19 14:16 43.010516 -111.481168 223 34036ft 393kts
27-Feb-19 14:17 42.928720 -111.579980 223 34036ft 392kts
27-Feb-19 14:18 42.847100 -111.678217 223 34036ft 391kts
27-Feb-19 14:19 42.765595 -111.775947 223 34040ft 390kts
27-Feb-19 14:20 42.675867 -111.858183 200 34038ft 402kts
27-Feb-19 14:21 42.562943 -111.879033 193 32773ft 414kts
27-Feb-19 14:22 42.448119 -111.898950 192 30727ft 418kts
27-Feb-19 14:23 42.332228 -111.918748 192 28697ft 423kts
27-Feb-19 14:24 42.214585 -111.938739 192 26633ft 427kts
27-Feb-19 14:25 42.096188 -111.958785 191 24525ft 430kts
27-Feb-19 14:26 41.975973 -111.979059 191 22340ft 437kts
27-Feb-19 14:27 41.859111 -111.998642 192 20300ft 405kts
27-Feb-19 14:28 41.750182 -112.016496 192 18353ft 384kts
27-Feb-19 14:29 41.645955 -112.032769 191 16492ft 367kts
27-Feb-19 14:30 41.547719 -112.048113 192 14919ft 340kts
27-Feb-19 14:31 41.458119 -112.050043 182 14395ft 311kts
27-Feb-19 14:32 41.374868 -112.044189 180 13548ft 301kts
27-Feb-19 14:33 41.295364 -112.033427 179 12231ft 259kts
27-Feb-19 14:34 41.231053 -112.003256 167 11971ft 235kts
27-Feb-19 14:35 41.168428 -111.976577 169 11203ft 248kts
27-Feb-19 14:36 41.101727 -111.962715 184 10516ft 247kts
27-Feb-19 14:37 41.032079 -111.962176 181 8939ft 246kts
27-Feb-19 14:38 40.964923 -111.962177 180 7502ft 234kts
27-Feb-19 14:39 40.903550 -111.961744 181 6239ft 196kts
27-Feb-19 14:40 40.859129 -111.962653 181 5482ft 134kts
27-Feb-19 14:41 40.820347 -111.962389 176 4763ft 137kts
27-Feb-19 14:42 40.787376 -111.961962 181 4230ft 59kts
27-Feb-19 14:43 40.782387 -111.960664 96 4229ft 1kts
27-Feb-19 14:44 40.778410 -111.960197 207 4229ft 15kts
27-Feb-19 14:45 40.775493 -111.958521 189 4229ft 8kts
27-Feb-19 14:46 40.775195 -111.958592 186 4229ft 0kts
27-Feb-19 14:47 40.775195 -111.958592 186 4229ft 0kts
27-Feb-19 14:48 40.775195 -111.958592 186 4229ft 0kts
27-Feb-19 14:49 40.775195 -111.958592 186 4229ft 0kts
27-Feb-19 14:50 40.775195 -111.958592 186 4229ft 0kts
27-Feb-19 14:51 40.775195 -111.958592 186 4229ft 0kts
27-Feb-19 14:52 40.775195 -111.958592 186 4229ft 0kts
27-Feb-19 14:53 40.775195 -111.958592 186 4229ft 0kts
27-Feb-19 14:54 40.775195 -111.958592 186 4229ft 0kts
27-Feb-19 14:55 40.775195 -111.958592 186 4229ft 0kts
27-Feb-19 14:56 40.775195 -111.958592 186 4229ft 0kts
27-Feb-19 14:57 40.775195 -111.958592 186 4229ft 0kts
27-Feb-19 14:58 40.775195 -111.958592 186 4229ft 0kts

Navigation Log

Ident Type
Flight plan parsing failed, navigation log unavailable